createdAt,value
2023-03-07T00:00:05.394Z,18.27
2023-03-07T00:02:32.469Z,19.43
2023-03-07T00:04:59.596Z,18.00
2023-03-07T00:07:26.831Z,17.92
2023-03-07T00:09:53.998Z,17.02
2023-03-07T00:12:22.478Z,18.23
2023-03-07T00:14:49.510Z,15.93
2023-03-07T00:17:16.762Z,17.02
2023-03-07T00:19:43.967Z,18.65
2023-03-07T00:22:14.462Z,17.45
2023-03-07T00:24:41.759Z,17.35
2023-03-07T00:27:09.199Z,15.80
2023-03-07T00:29:36.289Z,16.42
2023-03-07T00:32:03.610Z,16.67
2023-03-07T00:34:30.744Z,16.02
2023-03-07T00:36:57.813Z,16.80
2023-03-07T00:39:25.033Z,16.20
2023-03-07T00:41:52.124Z,16.17
2023-03-07T00:44:19.281Z,15.70
2023-03-07T00:46:46.678Z,15.73
2023-03-07T00:49:13.918Z,15.88
2023-03-07T00:51:41.042Z,15.00
2023-03-07T00:54:08.203Z,15.00
2023-03-07T00:56:36.308Z,15.77
2023-03-07T00:59:04.001Z,16.75
2023-03-07T01:01:31.181Z,15.27
2023-03-07T01:03:58.460Z,16.60
2023-03-07T01:06:28.717Z,16.95
2023-03-07T01:08:58.520Z,16.30
2023-03-07T01:13:59.281Z,16.75
2023-03-07T01:16:35.169Z,15.57
2023-03-07T01:19:05.646Z,15.05
2023-03-07T01:21:38.768Z,15.35
2023-03-07T01:24:07.385Z,16.13
2023-03-07T01:26:35.358Z,17.50
2023-03-07T01:29:05.074Z,16.33
2023-03-07T01:31:35.301Z,17.52
2023-03-07T01:34:03.218Z,17.92
2023-03-07T01:36:34.794Z,16.27
2023-03-07T01:39:14.675Z,17.92
2023-03-07T01:42:02.289Z,17.33
2023-03-07T01:44:30.233Z,16.40
2023-03-07T01:47:00.249Z,16.63
2023-03-07T01:49:39.059Z,17.67
2023-03-07T01:52:14.076Z,17.95
2023-03-07T01:54:50.553Z,18.70
2023-03-07T01:57:23.843Z,18.95
2023-03-07T01:59:54.476Z,18.88
2023-03-07T02:02:23.090Z,19.60
2023-03-07T02:05:01.151Z,18.55
2023-03-07T02:07:33.621Z,18.13
2023-03-07T02:10:01.966Z,20.08
2023-03-07T02:12:29.446Z,19.40
2023-03-07T02:14:56.676Z,20.55
2023-03-07T02:17:25.030Z,18.75
2023-03-07T02:20:07.228Z,20.15
2023-03-07T02:22:34.441Z,20.98
2023-03-07T02:25:09.065Z,21.20
2023-03-07T02:27:38.079Z,20.55
2023-03-07T02:30:07.972Z,20.90
2023-03-07T02:32:35.235Z,21.38
2023-03-07T02:35:02.391Z,22.75
2023-03-07T02:37:34.848Z,22.55
2023-03-07T02:40:07.278Z,22.58
2023-03-07T02:42:38.191Z,24.92
2023-03-07T02:45:13.000Z,24.27
2023-03-07T02:47:43.436Z,24.73
2023-03-07T02:50:14.390Z,25.88
2023-03-07T02:52:44.113Z,25.00
2023-03-07T02:55:12.012Z,25.80
2023-03-07T02:57:44.829Z,24.73
2023-03-07T03:00:15.352Z,26.10
2023-03-07T03:02:42.480Z,27.25
2023-03-07T03:05:09.656Z,25.80
2023-03-07T03:07:36.742Z,28.58
2023-03-07T03:10:04.473Z,27.00
2023-03-07T03:12:32.883Z,26.93
2023-03-07T03:15:00.303Z,27.00
2023-03-07T03:17:27.394Z,27.88
2023-03-07T03:19:54.729Z,27.05
2023-03-07T03:22:21.985Z,26.63
2023-03-07T03:24:51.119Z,25.95
2023-03-07T03:27:19.665Z,25.88
2023-03-07T03:29:49.520Z,28.52
2023-03-07T03:32:17.031Z,25.67
2023-03-07T03:34:45.339Z,26.10
2023-03-07T03:37:12.731Z,25.35
2023-03-07T03:39:39.963Z,24.23
2023-03-07T03:42:07.366Z,24.05
2023-03-07T03:44:34.528Z,23.35
2023-03-07T03:47:02.479Z,21.45
2023-03-07T03:49:29.725Z,22.13
2023-03-07T03:51:56.751Z,21.83
2023-03-07T03:54:24.722Z,24.65
2023-03-07T03:56:55.124Z,22.77
2023-03-07T03:59:22.617Z,20.30
2023-03-07T04:01:50.948Z,20.60
2023-03-07T04:04:19.284Z,20.42
2023-03-07T04:06:46.447Z,22.25
2023-03-07T04:09:13.584Z,23.70
2023-03-07T04:11:43.441Z,26.05
2023-03-07T04:14:10.990Z,30.00
2023-03-07T04:16:38.119Z,28.48
2023-03-07T04:19:05.330Z,29.25
2023-03-07T04:21:32.479Z,28.52
2023-03-07T04:24:00.422Z,28.92
2023-03-07T04:26:30.243Z,25.50
2023-03-07T04:28:57.453Z,23.33
2023-03-07T04:31:34.010Z,21.90
2023-03-07T04:34:03.469Z,19.33
2023-03-07T04:36:31.175Z,19.63
2023-03-07T04:38:58.278Z,17.08
2023-03-07T04:41:29.368Z,16.33
2023-03-07T04:44:17.531Z,16.48
2023-03-07T04:46:44.635Z,13.95
2023-03-07T04:49:12.002Z,14.50
2023-03-07T04:51:43.010Z,13.98
2023-03-07T04:54:11.881Z,14.30
2023-03-07T04:56:39.452Z,13.98
2023-03-07T04:59:09.057Z,14.85
2023-03-07T05:01:36.171Z,14.18
2023-03-07T05:04:04.109Z,17.63
2023-03-07T05:06:31.405Z,16.00
2023-03-07T05:08:58.876Z,16.73
2023-03-07T05:11:26.276Z,16.60
2023-03-07T05:13:53.993Z,19.33
2023-03-07T05:16:22.837Z,17.88
2023-03-07T05:18:50.318Z,17.75
2023-03-07T05:21:17.943Z,20.50
2023-03-07T05:23:45.290Z,20.00
2023-03-07T05:26:13.405Z,17.75
2023-03-07T05:28:41.272Z,18.13
2023-03-07T05:31:08.607Z,16.85
2023-03-07T05:33:35.739Z,18.58
2023-03-07T05:36:03.974Z,19.00
2023-03-07T05:38:32.600Z,15.73
2023-03-07T05:40:59.959Z,15.48
2023-03-07T05:43:27.709Z,17.10
2023-03-07T05:45:55.018Z,19.88
2023-03-07T05:48:22.142Z,20.33
2023-03-07T05:50:49.344Z,21.15
2023-03-07T05:53:18.084Z,18.08
2023-03-07T05:55:46.131Z,19.23
2023-03-07T05:58:15.089Z,17.57
2023-03-07T06:00:44.357Z,18.25
2023-03-07T06:03:11.496Z,20.05
2023-03-07T06:05:39.396Z,18.42
2023-03-07T06:08:07.373Z,17.38
2023-03-07T06:10:35.145Z,17.50
2023-03-07T06:13:03.875Z,20.42
2023-03-07T06:15:31.371Z,18.05
2023-03-07T06:18:03.567Z,21.30
2023-03-07T06:20:30.750Z,17.48
2023-03-07T06:22:57.928Z,19.02
2023-03-07T06:25:25.082Z,21.77
2023-03-07T06:27:52.512Z,18.58
2023-03-07T06:30:19.751Z,19.17
2023-03-07T06:32:46.889Z,18.90
2023-03-07T06:35:14.035Z,21.92
2023-03-07T06:37:41.342Z,17.80
2023-03-07T06:40:10.933Z,22.23
2023-03-07T06:42:39.825Z,20.40
2023-03-07T06:45:08.891Z,20.02
2023-03-07T06:47:35.978Z,21.67
2023-03-07T06:50:04.710Z,21.58
2023-03-07T06:52:33.578Z,18.77
2023-03-07T06:55:01.491Z,18.88
2023-03-07T06:57:30.078Z,19.67
2023-03-07T06:59:57.305Z,23.05
2023-03-07T07:02:24.852Z,23.83
2023-03-07T07:04:52.213Z,22.65
2023-03-07T07:07:19.534Z,24.70
2023-03-07T07:09:46.800Z,22.75
2023-03-07T07:12:13.886Z,23.90
2023-03-07T07:14:40.991Z,22.90
2023-03-07T07:17:08.501Z,23.55
2023-03-07T07:19:35.611Z,26.52
2023-03-07T07:22:03.174Z,27.45
2023-03-07T07:24:30.684Z,25.40
2023-03-07T07:26:58.445Z,27.20
2023-03-07T07:29:26.308Z,28.55
2023-03-07T07:31:54.362Z,23.77
2023-03-07T07:34:21.724Z,27.17
2023-03-07T07:36:48.879Z,27.83
2023-03-07T07:39:17.435Z,25.83
2023-03-07T07:41:46.372Z,28.35
2023-03-07T07:44:14.921Z,27.02
2023-03-07T07:46:53.845Z,29.85
2023-03-07T07:49:21.424Z,26.92
2023-03-07T07:51:48.640Z,29.15
2023-03-07T07:54:15.813Z,25.92
2023-03-07T07:56:43.154Z,28.77
2023-03-07T07:59:10.812Z,27.05
2023-03-07T08:01:38.192Z,30.20
2023-03-07T08:04:05.692Z,31.13
2023-03-07T08:06:32.820Z,28.65
2023-03-07T08:09:00.529Z,31.27
2023-03-07T08:11:27.843Z,30.98
2023-03-07T08:13:55.325Z,29.25
2023-03-07T08:16:23.570Z,29.20
2023-03-07T08:18:58.405Z,30.20
2023-03-07T08:21:26.260Z,31.40
2023-03-07T08:23:55.510Z,32.25
2023-03-07T08:26:23.121Z,29.90
2023-03-07T08:28:52.461Z,33.03
2023-03-07T08:31:23.765Z,30.58
2023-03-07T08:33:52.030Z,30.67
2023-03-07T08:36:19.483Z,33.22
2023-03-07T08:38:51.996Z,31.33
2023-03-07T08:41:20.901Z,34.90
2023-03-07T08:43:48.723Z,31.40
2023-03-07T08:46:16.353Z,32.45
2023-03-07T08:48:43.776Z,31.88
2023-03-07T08:51:15.211Z,30.85
2023-03-07T08:53:43.377Z,33.65
2023-03-07T08:56:13.404Z,31.10
2023-03-07T08:58:41.694Z,32.47
2023-03-07T09:01:09.246Z,32.20
2023-03-07T09:03:37.638Z,33.08
2023-03-07T09:06:05.948Z,33.92
2023-03-07T09:08:33.548Z,33.15
2023-03-07T09:11:03.765Z,35.67
2023-03-07T09:13:33.070Z,31.13
2023-03-07T09:16:05.166Z,32.88
2023-03-07T09:18:32.644Z,31.98
2023-03-07T09:21:06.762Z,34.33
2023-03-07T09:23:34.523Z,36.25
2023-03-07T09:26:02.331Z,35.38
2023-03-07T09:28:29.495Z,35.20
2023-03-07T09:30:56.720Z,31.75
2023-03-07T09:33:24.322Z,31.73
2023-03-07T09:35:51.683Z,33.63
2023-03-07T09:38:19.037Z,29.60
2023-03-07T09:40:48.107Z,31.23
2023-03-07T09:43:33.838Z,28.80
2023-03-07T09:46:32.718Z,30.67
2023-03-07T09:49:08.842Z,29.10
2023-03-07T09:51:44.319Z,28.80
2023-03-07T09:54:17.452Z,29.60
2023-03-07T09:56:57.887Z,28.88
2023-03-07T09:59:38.647Z,29.10
2023-03-07T10:02:18.868Z,28.42
2023-03-07T10:07:16.856Z,28.58
2023-03-07T10:09:45.836Z,29.33
2023-03-07T10:12:34.843Z,31.10
2023-03-07T10:15:03.839Z,29.58
2023-03-07T10:18:06.783Z,29.50
2023-03-07T10:20:45.924Z,28.83
2023-03-07T10:23:29.295Z,27.60
2023-03-07T10:26:11.685Z,27.38
2023-03-07T10:28:42.692Z,27.33
2023-03-07T10:31:17.920Z,27.48
2023-03-07T10:33:49.766Z,28.00
2023-03-07T10:36:22.364Z,27.70
2023-03-07T10:39:21.362Z,28.08
2023-03-07T10:41:49.365Z,27.10
2023-03-07T10:44:20.923Z,29.13
2023-03-07T10:46:56.378Z,30.52
2023-03-07T10:49:38.155Z,27.40
2023-03-07T10:52:47.278Z,27.35
2023-03-07T10:55:43.305Z,27.30
2023-03-07T10:58:16.434Z,27.75
2023-03-07T11:00:44.809Z,24.85
2023-03-07T11:03:29.371Z,24.52
2023-03-07T11:05:56.429Z,25.00
2023-03-07T11:08:28.555Z,26.65
2023-03-07T11:10:55.971Z,23.17
2023-03-07T11:13:24.693Z,26.17
2023-03-07T11:16:00.221Z,24.88
2023-03-07T11:18:42.447Z,23.50
2023-03-07T11:21:29.920Z,24.10
2023-03-07T11:24:03.459Z,21.27
2023-03-07T11:26:39.206Z,21.75
2023-03-07T11:29:14.531Z,22.83
2023-03-07T11:31:56.961Z,21.33
2023-03-07T11:34:51.896Z,22.75
2023-03-07T11:37:39.585Z,22.52
2023-03-07T11:40:28.020Z,22.05
2023-03-07T11:43:15.871Z,22.42
2023-03-07T11:45:46.012Z,22.35
2023-03-07T11:48:21.429Z,21.02
2023-03-07T11:50:55.881Z,21.30
2023-03-07T11:53:47.802Z,22.98
2023-03-07T11:56:35.196Z,20.55
2023-03-07T11:59:21.030Z,22.92
2023-03-07T12:01:57.374Z,22.90
2023-03-07T12:04:46.088Z,22.02
2023-03-07T12:07:45.283Z,23.38
2023-03-07T12:10:33.606Z,22.63
2023-03-07T12:13:24.772Z,22.33
2023-03-07T12:16:06.840Z,23.88
2023-03-07T12:19:10.602Z,22.25
2023-03-07T12:21:40.808Z,23.40
2023-03-07T12:27:02.887Z,23.00
2023-03-07T12:29:41.761Z,23.08
2023-03-07T12:32:21.862Z,22.48
2023-03-07T12:37:31.048Z,21.10
2023-03-07T12:40:37.160Z,21.58
2023-03-07T12:43:19.648Z,21.30
2023-03-07T12:46:24.828Z,21.17
2023-03-07T12:49:02.482Z,22.00
2023-03-07T12:51:52.348Z,21.67
2023-03-07T12:54:39.940Z,20.83
2023-03-07T12:57:19.337Z,21.80
2023-03-07T12:59:46.556Z,22.65
2023-03-07T13:02:54.323Z,23.35
2023-03-07T13:05:22.405Z,21.08
2023-03-07T13:07:50.440Z,22.13
2023-03-07T13:10:23.566Z,22.05
2023-03-07T13:12:52.326Z,22.60
2023-03-07T13:15:19.501Z,22.48
2023-03-07T13:17:46.705Z,21.70
2023-03-07T13:20:19.316Z,22.38
2023-03-07T13:22:46.526Z,21.40
2023-03-07T13:25:23.345Z,22.98
2023-03-07T13:27:58.252Z,21.95
2023-03-07T13:30:33.388Z,22.33
2023-03-07T13:33:02.948Z,20.80
2023-03-07T13:35:36.070Z,23.48
2023-03-07T13:38:24.822Z,22.45
2023-03-07T13:40:55.830Z,21.65
2023-03-07T13:43:24.165Z,21.90
2023-03-07T13:46:00.923Z,23.90
2023-03-07T13:48:31.040Z,23.83
2023-03-07T13:51:01.279Z,23.48
2023-03-07T13:56:02.351Z,23.83
2023-03-07T13:58:35.533Z,22.98
2023-03-07T14:01:14.988Z,21.67
2023-03-07T14:03:53.258Z,22.42
2023-03-07T14:06:28.318Z,23.73
2023-03-07T14:08:55.831Z,23.27
2023-03-07T14:11:32.892Z,23.38
2023-03-07T14:14:21.973Z,23.70
2023-03-07T14:17:33.739Z,22.02
2023-03-07T14:20:24.043Z,23.77
2023-03-07T14:25:35.142Z,22.48
2023-03-07T14:28:18.167Z,24.55
2023-03-07T14:30:59.178Z,24.13
2023-03-07T14:33:37.694Z,23.20
2023-03-07T14:36:19.882Z,24.50
2023-03-07T14:38:48.791Z,22.92
2023-03-07T14:41:26.035Z,23.70
2023-03-07T14:44:06.168Z,21.35
2023-03-07T14:47:18.074Z,24.17
2023-03-07T14:49:45.256Z,24.75
2023-03-07T14:52:28.365Z,24.38
2023-03-07T14:55:02.181Z,29.55
2023-03-07T14:57:37.006Z,27.75
2023-03-07T15:00:14.170Z,24.40
2023-03-07T15:02:53.433Z,25.45
2023-03-07T15:05:30.026Z,23.87
2023-03-07T15:07:58.048Z,24.77
2023-03-07T15:10:29.695Z,27.00
2023-03-07T15:12:58.180Z,24.80
2023-03-07T15:15:34.612Z,25.88
2023-03-07T15:18:14.856Z,27.08
2023-03-07T15:23:21.973Z,24.73
2023-03-07T15:25:49.760Z,22.75
2023-03-07T15:28:37.624Z,26.38
2023-03-07T15:31:05.204Z,25.05
2023-03-07T15:33:33.535Z,25.73
2023-03-07T15:36:08.436Z,25.00
2023-03-07T15:38:35.842Z,29.85
2023-03-07T15:41:23.123Z,28.70
2023-03-07T15:44:04.263Z,28.77
2023-03-07T15:46:33.118Z,29.83
2023-03-07T15:49:00.454Z,26.75
2023-03-07T15:51:36.318Z,26.75
2023-03-07T15:54:31.324Z,25.25
2023-03-07T15:57:04.502Z,25.08
2023-03-07T15:59:36.559Z,25.48
2023-03-07T16:02:32.658Z,24.63
2023-03-07T16:05:02.058Z,26.15
2023-03-07T16:07:29.359Z,24.23
2023-03-07T16:09:56.550Z,25.90
2023-03-07T16:12:25.561Z,27.67
2023-03-07T16:14:54.964Z,27.58
2023-03-07T16:17:30.189Z,27.50
2023-03-07T16:19:57.654Z,25.65
2023-03-07T16:22:24.815Z,26.63
2023-03-07T16:24:52.180Z,25.90
2023-03-07T16:27:22.403Z,25.10
2023-03-07T16:32:18.942Z,24.98
2023-03-07T16:34:46.225Z,25.30
2023-03-07T16:37:13.705Z,26.88
2023-03-07T16:39:41.378Z,30.15
2023-03-07T16:42:21.759Z,23.83
2023-03-07T16:44:49.777Z,27.88
2023-03-07T16:47:18.861Z,26.10
2023-03-07T16:49:49.272Z,24.20
2023-03-07T16:52:16.407Z,24.88
2023-03-07T16:54:43.580Z,24.42
2023-03-07T16:57:15.347Z,25.45
2023-03-07T16:59:47.359Z,24.40
2023-03-07T17:02:19.812Z,23.38
2023-03-07T17:04:47.563Z,24.77
2023-03-07T17:07:19.764Z,21.52
2023-03-07T17:09:47.026Z,21.70
2023-03-07T17:12:14.866Z,22.23
2023-03-07T17:14:43.032Z,20.40
2023-03-07T17:17:19.221Z,15.63
2023-03-07T17:19:46.351Z,12.48
2023-03-07T17:22:13.674Z,7.28
2023-03-07T17:24:40.876Z,4.63
2023-03-07T17:27:09.008Z,4.57
2023-03-07T17:29:43.840Z,4.10
2023-03-07T17:32:11.489Z,4.30
2023-03-07T17:34:39.542Z,4.40
2023-03-07T17:37:07.095Z,4.72
2023-03-07T17:39:35.067Z,4.75
2023-03-07T17:42:03.217Z,3.90
2023-03-07T17:44:30.399Z,3.80
2023-03-07T17:46:57.835Z,3.92
2023-03-07T17:49:28.503Z,4.07
2023-03-07T17:51:55.710Z,3.17
2023-03-07T17:54:22.941Z,3.22
2023-03-07T17:56:50.240Z,3.65
2023-03-07T17:59:17.374Z,3.05
2023-03-07T18:01:44.817Z,3.13
2023-03-07T18:04:12.492Z,3.10
2023-03-07T18:06:40.997Z,3.20
2023-03-07T18:09:09.533Z,2.92
2023-03-07T18:11:37.112Z,3.35
2023-03-07T18:14:04.204Z,3.35
2023-03-07T18:16:31.792Z,2.97
2023-03-07T18:19:01.761Z,3.60
2023-03-07T18:21:30.619Z,3.10
2023-03-07T18:23:58.260Z,2.97
2023-03-07T18:26:25.487Z,2.58
2023-03-07T18:28:54.007Z,2.17
2023-03-07T18:31:25.366Z,2.20
2023-03-07T18:33:53.532Z,2.42
2023-03-07T18:36:23.121Z,2.45
2023-03-07T18:38:50.582Z,2.83
2023-03-07T18:41:20.761Z,2.45
2023-03-07T18:46:18.691Z,2.63
2023-03-07T18:48:46.098Z,3.45
2023-03-07T18:51:25.286Z,3.90
2023-03-07T18:53:58.585Z,3.58
2023-03-07T18:56:27.180Z,3.47
2023-03-07T18:58:56.281Z,3.08
2023-03-07T19:01:27.442Z,3.95
2023-03-07T19:03:56.117Z,5.30
2023-03-07T19:06:25.922Z,5.32
2023-03-07T19:08:53.327Z,3.67
2023-03-07T19:11:20.881Z,6.00
2023-03-07T19:13:50.757Z,5.15
2023-03-07T19:16:20.909Z,5.50
2023-03-07T19:21:23.247Z,4.97
2023-03-07T19:23:52.011Z,5.28
2023-03-07T19:26:20.220Z,5.95
2023-03-07T19:28:50.091Z,5.28
2023-03-07T19:31:20.504Z,5.22
2023-03-07T19:33:50.113Z,5.28
2023-03-07T19:36:27.170Z,5.78
2023-03-07T19:38:57.318Z,6.13
2023-03-07T19:41:26.520Z,5.57
2023-03-07T19:43:55.961Z,5.10
2023-03-07T19:46:23.649Z,5.20
2023-03-07T19:48:50.769Z,4.93
2023-03-07T19:51:23.245Z,5.00
2023-03-07T19:53:51.282Z,5.85
2023-03-07T19:56:24.665Z,5.25
2023-03-07T19:58:51.937Z,5.13
2023-03-07T20:01:20.115Z,5.32
2023-03-07T20:03:48.327Z,5.35
2023-03-07T20:06:27.003Z,5.47
2023-03-07T20:08:55.284Z,5.18
2023-03-07T20:11:27.148Z,5.50
2023-03-07T20:13:56.933Z,5.47
2023-03-07T20:16:25.010Z,5.85
2023-03-07T20:18:53.770Z,5.47
2023-03-07T20:21:26.278Z,5.65
2023-03-07T20:23:55.969Z,5.82
2023-03-07T20:26:28.755Z,6.47
2023-03-07T20:28:57.059Z,6.15
2023-03-07T20:31:24.505Z,6.57
2023-03-07T20:33:51.820Z,7.70
2023-03-07T20:36:25.048Z,7.63
2023-03-07T20:38:57.461Z,6.95
2023-03-07T20:41:26.640Z,6.35
2023-03-07T20:43:57.124Z,6.88
2023-03-07T20:46:24.299Z,7.15
2023-03-07T20:48:54.826Z,6.22
2023-03-07T20:51:24.199Z,6.88
2023-03-07T20:53:54.664Z,7.20
2023-03-07T20:56:22.912Z,7.45
2023-03-07T20:58:50.426Z,6.82
2023-03-07T21:01:19.306Z,6.53
2023-03-07T21:03:48.298Z,8.63
2023-03-07T21:06:16.356Z,7.82
2023-03-07T21:08:44.124Z,7.25
2023-03-07T21:11:13.789Z,7.43
2023-03-07T21:13:42.847Z,8.02
2023-03-07T21:16:13.166Z,6.97
2023-03-07T21:18:40.529Z,8.00
2023-03-07T21:21:13.720Z,7.63
2023-03-07T21:23:41.367Z,7.55
2023-03-07T21:26:10.039Z,7.72
2023-03-07T21:28:37.832Z,7.53
2023-03-07T21:31:22.566Z,8.00
2023-03-07T21:33:53.935Z,10.73
2023-03-07T21:36:21.481Z,9.68
2023-03-07T21:38:49.077Z,8.48
2023-03-07T21:41:18.963Z,8.95
2023-03-07T21:43:46.234Z,7.70
2023-03-07T21:46:14.171Z,8.90
2023-03-07T21:48:42.325Z,10.80
2023-03-07T21:51:10.044Z,9.15
2023-03-07T21:53:37.770Z,9.45
2023-03-07T21:56:10.368Z,9.13
2023-03-07T21:58:38.421Z,8.82
2023-03-07T22:01:22.307Z,9.30
2023-03-07T22:03:55.701Z,8.93
2023-03-07T22:06:23.841Z,9.50
2023-03-07T22:08:51.354Z,9.70
2023-03-07T22:11:18.496Z,10.80
2023-03-07T22:13:45.515Z,9.38
2023-03-07T22:16:15.682Z,9.63
2023-03-07T22:21:13.697Z,8.52
2023-03-07T22:23:41.383Z,9.30
2023-03-07T22:26:10.578Z,10.10
2023-03-07T22:28:38.105Z,12.57
2023-03-07T22:31:07.690Z,11.07
2023-03-07T22:33:35.407Z,9.35
2023-03-07T22:36:04.858Z,9.57
2023-03-07T22:38:32.393Z,10.27
2023-03-07T22:41:03.634Z,9.98
2023-03-07T22:43:32.078Z,10.93
2023-03-07T22:45:59.476Z,11.98
2023-03-07T22:48:27.013Z,10.38
2023-03-07T22:50:54.393Z,10.20
2023-03-07T22:53:21.789Z,10.18
2023-03-07T22:55:48.906Z,10.60
2023-03-07T22:58:16.739Z,11.13
2023-03-07T23:00:45.286Z,10.65
2023-03-07T23:03:12.511Z,11.75
2023-03-07T23:05:39.643Z,11.40
2023-03-07T23:08:07.108Z,12.25
2023-03-07T23:10:34.294Z,12.07
2023-03-07T23:13:01.547Z,11.40
2023-03-07T23:15:29.232Z,10.43
2023-03-07T23:17:56.693Z,10.60
2023-03-07T23:20:26.460Z,10.15
2023-03-07T23:22:53.843Z,10.52
2023-03-07T23:25:21.626Z,10.85
2023-03-07T23:27:48.762Z,12.43
2023-03-07T23:30:18.008Z,11.65
2023-03-07T23:32:45.182Z,9.85
2023-03-07T23:35:12.678Z,9.43
2023-03-07T23:37:41.971Z,9.50
2023-03-07T23:40:12.256Z,9.97
2023-03-07T23:45:06.791Z,8.75
2023-03-07T23:47:34.588Z,9.52
2023-03-07T23:50:01.619Z,11.18
2023-03-07T23:52:28.708Z,11.45
2023-03-07T23:54:55.915Z,9.23
2023-03-07T23:57:23.018Z,9.50
2023-03-07T23:59:50.073Z,9.45
